createdAt,value
2017-11-14T00:01:20.729Z,14.47
2017-11-14T00:03:47.367Z,14.23
2017-11-14T00:06:15.945Z,14.07
2017-11-14T00:08:47.487Z,15.90
2017-11-14T00:11:18.133Z,14.23
2017-11-14T00:13:46.870Z,16.67
2017-11-14T00:16:16.196Z,14.90
2017-11-14T00:18:42.486Z,13.87
2017-11-14T00:21:11.695Z,17.00
2017-11-14T00:23:41.370Z,14.50
2017-11-14T00:26:07.931Z,15.60
2017-11-14T00:28:35.186Z,16.63
2017-11-14T00:31:03.574Z,16.43
2017-11-14T00:33:30.920Z,15.57
2017-11-14T00:35:59.497Z,15.10
2017-11-14T00:38:26.164Z,17.20
2017-11-14T00:40:54.396Z,13.23
2017-11-14T00:43:21.363Z,15.60
2017-11-14T00:45:49.074Z,19.40
2017-11-14T00:48:16.079Z,14.93
2017-11-14T00:50:43.013Z,13.90
2017-11-14T00:53:10.215Z,13.60
2017-11-14T00:55:36.410Z,15.37
2017-11-14T00:58:06.212Z,15.03
2017-11-14T01:00:33.566Z,14.40
2017-11-14T01:03:00.143Z,14.83
2017-11-14T01:05:26.795Z,14.27
2017-11-14T01:07:53.875Z,15.03
2017-11-14T01:10:20.113Z,12.83
2017-11-14T01:12:47.845Z,13.60
2017-11-14T01:15:15.102Z,15.20
2017-11-14T01:17:41.658Z,14.47
2017-11-14T01:20:08.859Z,14.30
2017-11-14T01:22:35.410Z,14.60
2017-11-14T01:25:03.331Z,14.90
2017-11-14T01:27:30.424Z,15.77
2017-11-14T01:29:58.062Z,15.20
2017-11-14T01:32:27.344Z,13.60
2017-11-14T01:34:53.626Z,15.03
2017-11-14T01:37:20.960Z,15.80
2017-11-14T01:39:48.101Z,13.30
2017-11-14T01:42:15.042Z,13.83
2017-11-14T01:44:42.747Z,13.27
2017-11-14T01:47:10.275Z,15.33
2017-11-14T01:49:36.726Z,13.93
2017-11-14T01:52:04.463Z,13.67
2017-11-14T01:54:31.411Z,14.17
2017-11-14T01:56:59.387Z,14.07
2017-11-14T01:59:28.664Z,14.47
2017-11-14T02:01:56.131Z,15.37
2017-11-14T02:04:23.792Z,14.33
2017-11-14T02:06:53.041Z,12.90
2017-11-14T02:09:20.032Z,13.30
2017-11-14T02:11:49.283Z,12.03
2017-11-14T02:14:16.939Z,14.77
2017-11-14T02:16:43.157Z,14.90
2017-11-14T02:19:09.764Z,12.67
2017-11-14T02:21:36.967Z,13.93
2017-11-14T02:24:04.951Z,15.17
2017-11-14T02:26:34.026Z,13.27
2017-11-14T02:29:00.330Z,13.97
2017-11-14T02:31:27.306Z,13.93
2017-11-14T02:33:54.988Z,13.17
2017-11-14T02:36:23.693Z,12.90
2017-11-14T02:38:50.520Z,15.53
2017-11-14T02:41:16.756Z,12.47
2017-11-14T02:43:45.415Z,12.87
2017-11-14T02:46:11.857Z,14.50
2017-11-14T02:48:40.235Z,12.40
2017-11-14T02:51:08.069Z,12.60
2017-11-14T02:53:35.988Z,12.50
2017-11-14T02:56:03.152Z,12.50
2017-11-14T02:58:29.493Z,13.20
2017-11-14T03:00:56.994Z,13.93
2017-11-14T03:03:26.475Z,13.33
2017-11-14T03:05:57.284Z,12.83
2017-11-14T03:08:23.500Z,13.03
2017-11-14T03:10:52.390Z,11.87
2017-11-14T03:13:20.230Z,12.07
2017-11-14T03:15:47.682Z,11.53
2017-11-14T03:18:15.111Z,10.97
2017-11-14T03:20:43.965Z,12.20
2017-11-14T03:23:10.197Z,11.90
2017-11-14T03:25:36.809Z,11.80
2017-11-14T03:28:03.113Z,11.33
2017-11-14T03:30:29.375Z,12.40
2017-11-14T03:32:56.979Z,12.60
2017-11-14T03:35:23.879Z,12.60
2017-11-14T03:37:51.295Z,10.60
2017-11-14T03:40:19.661Z,12.53
2017-11-14T03:42:48.024Z,15.00
2017-11-14T03:45:15.644Z,12.80
2017-11-14T03:47:43.440Z,14.03
2017-11-14T03:50:10.812Z,12.70
2017-11-14T03:52:37.250Z,12.67
2017-11-14T03:55:04.427Z,13.23
2017-11-14T03:57:32.141Z,12.87
2017-11-14T03:59:59.420Z,12.17
2017-11-14T04:02:26.254Z,12.60
2017-11-14T04:04:53.183Z,12.13
2017-11-14T04:07:19.470Z,12.83
2017-11-14T04:09:48.206Z,11.27
2017-11-14T04:12:14.830Z,12.37
2017-11-14T04:14:42.231Z,11.00
2017-11-14T04:17:09.402Z,13.40
2017-11-14T04:19:37.559Z,11.80
2017-11-14T04:22:04.509Z,10.73
2017-11-14T04:24:33.287Z,10.40
2017-11-14T04:26:59.496Z,12.20
2017-11-14T04:29:28.411Z,11.30
2017-11-14T04:31:55.998Z,12.43
2017-11-14T04:34:23.478Z,12.10
2017-11-14T04:36:52.406Z,13.47
2017-11-14T04:39:18.630Z,11.70
2017-11-14T04:41:45.651Z,11.33
2017-11-14T04:44:13.929Z,11.67
2017-11-14T04:46:41.496Z,11.03
2017-11-14T04:49:08.815Z,11.30
2017-11-14T04:51:35.985Z,12.80
2017-11-14T04:54:03.637Z,11.20
2017-11-14T04:56:29.841Z,13.57
2017-11-14T04:58:59.287Z,13.40
2017-11-14T05:01:25.672Z,11.17
2017-11-14T05:03:53.700Z,11.57
2017-11-14T05:06:21.075Z,11.77
2017-11-14T05:08:48.494Z,11.90
2017-11-14T05:11:15.423Z,10.60
2017-11-14T05:13:44.124Z,12.10
2017-11-14T05:16:14.651Z,12.00
2017-11-14T05:18:42.611Z,12.40
2017-11-14T05:21:08.801Z,13.57
2017-11-14T05:23:35.385Z,11.67
2017-11-14T05:26:01.667Z,11.30
2017-11-14T05:28:29.601Z,11.80
2017-11-14T05:30:55.948Z,11.77
2017-11-14T05:33:24.462Z,13.30
2017-11-14T05:35:52.352Z,11.47
2017-11-14T05:38:18.861Z,10.93
2017-11-14T05:40:48.178Z,11.82
2017-11-14T05:43:15.865Z,13.00
2017-11-14T05:45:43.395Z,10.25
2017-11-14T05:48:09.609Z,11.50
2017-11-14T05:50:35.909Z,11.07
2017-11-14T05:53:03.329Z,11.32
2017-11-14T05:55:32.158Z,10.63
2017-11-14T05:58:00.408Z,12.53
2017-11-14T06:00:27.433Z,12.10
2017-11-14T06:02:54.341Z,10.13
2017-11-14T06:05:20.546Z,11.18
2017-11-14T06:07:47.043Z,9.90
2017-11-14T06:10:14.290Z,9.03
2017-11-14T06:12:41.269Z,9.05
2017-11-14T06:15:07.949Z,8.77
2017-11-14T06:17:34.516Z,10.20
2017-11-14T06:20:02.338Z,9.10
2017-11-14T06:22:29.616Z,9.67
2017-11-14T06:24:57.720Z,8.82
2017-11-14T06:27:25.707Z,8.88
2017-11-14T06:29:52.800Z,8.07
2017-11-14T06:32:20.837Z,10.70
2017-11-14T06:34:48.032Z,10.27
2017-11-14T06:37:15.393Z,10.25
2017-11-14T06:39:41.613Z,9.10
2017-11-14T06:42:08.216Z,9.13
2017-11-14T06:44:34.962Z,10.27
2017-11-14T06:57:02.240Z,8.15
2017-11-14T06:59:31.639Z,8.73
2017-11-14T07:01:58.651Z,8.43
2017-11-14T07:04:26.748Z,8.68
2017-11-14T07:06:52.961Z,8.85
2017-11-14T07:09:21.680Z,8.70
2017-11-14T07:11:50.604Z,11.10
2017-11-14T07:14:17.601Z,12.37
2017-11-14T07:16:45.279Z,11.27
2017-11-14T07:19:12.536Z,14.03
2017-11-14T07:21:40.940Z,15.18
2017-11-14T07:24:09.479Z,13.73
2017-11-14T07:26:35.687Z,11.60
2017-11-14T07:29:03.370Z,11.23
2017-11-14T07:31:30.719Z,11.37
2017-11-14T07:33:57.758Z,12.83
2017-11-14T07:36:25.667Z,13.10
2017-11-14T07:38:53.176Z,13.77
2017-11-14T07:41:19.384Z,13.17
2017-11-14T07:43:45.863Z,13.73
2017-11-14T07:46:15.325Z,12.83
2017-11-14T07:48:41.997Z,11.80
2017-11-14T07:51:08.621Z,12.00
2017-11-14T07:53:36.336Z,12.70
2017-11-14T07:56:05.481Z,13.53
2017-11-14T07:58:32.100Z,13.90
2017-11-14T08:00:59.657Z,16.42
2017-11-14T08:03:29.280Z,13.40
2017-11-14T08:05:56.556Z,13.85
2017-11-14T08:08:22.752Z,14.33
2017-11-14T08:10:50.690Z,13.20
2017-11-14T08:13:18.900Z,14.50
2017-11-14T08:15:45.188Z,13.88
2017-11-14T08:18:11.804Z,13.00
2017-11-14T08:20:38.340Z,13.90
2017-11-14T08:23:05.321Z,13.37
2017-11-14T08:25:34.070Z,14.00
2017-11-14T08:28:00.961Z,11.47
2017-11-14T08:30:29.529Z,13.63
2017-11-14T08:32:58.804Z,12.20
2017-11-14T08:35:26.001Z,13.70
2017-11-14T08:37:52.487Z,12.60
2017-11-14T08:40:18.714Z,11.60
2017-11-14T08:42:46.627Z,12.23
2017-11-14T08:45:14.800Z,11.87
2017-11-14T08:47:41.408Z,11.10
2017-11-14T08:50:07.664Z,11.17
2017-11-14T08:52:34.621Z,11.07
2017-11-14T08:55:03.424Z,10.33
2017-11-14T08:57:30.956Z,11.73
2017-11-14T08:59:57.531Z,10.47
2017-11-14T09:02:24.153Z,12.40
2017-11-14T09:04:52.823Z,12.30
2017-11-14T09:07:19.770Z,11.63
2017-11-14T09:09:47.798Z,11.13
2017-11-14T09:12:14.969Z,9.33
2017-11-14T09:14:42.969Z,9.37
2017-11-14T09:17:10.839Z,9.60
2017-11-14T09:19:38.230Z,10.00
2017-11-14T09:22:05.249Z,10.73
2017-11-14T09:24:31.511Z,10.57
2017-11-14T09:26:59.071Z,10.10
2017-11-14T09:29:25.340Z,10.50
2017-11-14T09:31:52.310Z,10.17
2017-11-14T09:34:20.974Z,10.73
2017-11-14T09:36:49.759Z,12.07
2017-11-14T09:39:18.585Z,10.93
2017-11-14T09:41:45.661Z,10.07
2017-11-14T09:44:11.970Z,9.83
2017-11-14T09:46:38.713Z,12.20
2017-11-14T09:49:05.403Z,10.20
2017-11-14T09:51:32.426Z,10.03
2017-11-14T09:53:58.702Z,9.80
2017-11-14T09:56:26.005Z,8.70
2017-11-14T09:58:53.091Z,9.40
2017-11-14T10:01:19.689Z,10.07
2017-11-14T10:03:46.661Z,11.13
2017-11-14T10:06:13.867Z,9.97
2017-11-14T10:08:40.866Z,10.33
2017-11-14T10:11:07.104Z,9.97
2017-11-14T10:13:34.417Z,9.80
2017-11-14T10:16:00.980Z,9.30
2017-11-14T10:18:28.342Z,11.40
2017-11-14T10:20:54.630Z,9.80
2017-11-14T10:23:21.613Z,10.43
2017-11-14T10:25:48.249Z,10.23
2017-11-14T10:28:14.427Z,10.17
2017-11-14T10:30:41.621Z,9.60
2017-11-14T10:33:08.577Z,9.53
2017-11-14T10:35:34.801Z,9.90
2017-11-14T10:38:01.103Z,10.23
2017-11-14T10:40:28.056Z,8.77
2017-11-14T10:42:55.484Z,10.50
2017-11-14T10:45:21.754Z,9.77
2017-11-14T10:47:48.707Z,9.77
2017-11-14T10:50:15.029Z,8.70
2017-11-14T10:52:41.279Z,8.77
2017-11-14T11:08:09.748Z,9.77
2017-11-14T11:10:35.947Z,9.40
2017-11-14T11:13:03.012Z,10.03
2017-11-14T11:15:29.605Z,10.47
2017-11-14T11:17:57.410Z,9.27
2017-11-14T11:20:23.831Z,8.83
2017-11-14T11:32:40.107Z,7.90
2017-11-14T11:35:06.383Z,8.70
2017-11-14T11:37:34.349Z,9.07
2017-11-14T11:40:01.060Z,8.30
2017-11-14T11:42:27.315Z,9.33
2017-11-14T11:44:54.461Z,8.13
2017-11-14T11:47:20.690Z,8.60
2017-11-14T11:49:48.756Z,9.40
2017-11-14T11:52:15.063Z,9.20
2017-11-14T11:54:42.387Z,8.30
2017-11-14T11:57:08.970Z,8.70
2017-11-14T11:59:36.325Z,7.57
2017-11-14T12:02:03.463Z,7.70
2017-11-14T12:04:29.709Z,8.40
2017-11-14T12:06:58.211Z,8.07
2017-11-14T12:09:25.358Z,7.10
2017-11-14T12:11:52.855Z,8.40
2017-11-14T12:14:19.041Z,7.73
2017-11-14T12:16:46.855Z,10.23
2017-11-14T12:19:14.350Z,7.40
2017-11-14T12:21:41.355Z,7.00
2017-11-14T12:24:07.577Z,6.43
2017-11-14T12:26:34.818Z,5.70
2017-11-14T12:29:02.662Z,6.70
2017-11-14T12:31:28.891Z,6.30
2017-11-14T12:33:55.199Z,6.73
2017-11-14T12:36:21.426Z,6.40
2017-11-14T12:38:47.651Z,6.50
2017-11-14T12:41:13.849Z,5.50
2017-11-14T12:43:40.226Z,5.73
2017-11-14T12:46:07.004Z,5.80
2017-11-14T12:48:34.140Z,7.60
2017-11-14T12:51:02.015Z,5.13
2017-11-14T12:53:29.130Z,4.17
2017-11-14T12:55:55.358Z,5.47
2017-11-14T12:58:22.321Z,4.83
2017-11-14T13:00:49.023Z,5.23
2017-11-14T13:03:15.216Z,5.10
2017-11-14T13:05:42.553Z,6.80
2017-11-14T13:08:08.792Z,5.07
2017-11-14T13:10:35.777Z,4.23
2017-11-14T13:13:02.233Z,4.97
2017-11-14T13:15:28.879Z,5.70
2017-11-14T13:17:55.160Z,4.57
2017-11-14T13:20:24.222Z,4.83
2017-11-14T13:22:50.534Z,4.17
2017-11-14T13:25:16.760Z,3.60
2017-11-14T13:27:44.005Z,4.30
2017-11-14T13:30:11.195Z,4.03
2017-11-14T13:32:39.576Z,5.07
2017-11-14T13:35:08.895Z,3.70
2017-11-14T13:37:36.364Z,4.40
2017-11-14T13:40:07.297Z,4.23
2017-11-14T13:42:34.389Z,4.70
2017-11-14T13:45:01.641Z,3.43
2017-11-14T13:47:27.853Z,4.23
2017-11-14T13:49:54.918Z,4.20
2017-11-14T13:52:21.097Z,4.30
2017-11-14T13:54:49.003Z,3.87
2017-11-14T13:57:15.290Z,3.50
2017-11-14T13:59:42.191Z,4.77
2017-11-14T14:02:09.374Z,3.07
2017-11-14T14:04:35.960Z,4.20
2017-11-14T14:07:02.946Z,3.70
2017-11-14T14:09:29.204Z,3.97
2017-11-14T14:11:57.630Z,6.33
2017-11-14T14:14:24.710Z,5.60
2017-11-14T14:16:52.101Z,4.23
2017-11-14T14:19:18.421Z,4.60
2017-11-14T14:21:45.335Z,9.50
2017-11-14T14:24:13.522Z,3.40
2017-11-14T14:26:43.519Z,4.20
2017-11-14T14:29:10.994Z,4.20
2017-11-14T14:31:37.240Z,3.20
2017-11-14T14:34:04.175Z,3.37
2017-11-14T14:36:33.174Z,3.80
2017-11-14T14:39:02.355Z,3.30
2017-11-14T14:41:28.585Z,3.10
2017-11-14T14:43:55.879Z,4.20
2017-11-14T14:46:23.488Z,3.80
2017-11-14T14:48:50.436Z,3.37
2017-11-14T14:51:17.587Z,3.27
2017-11-14T14:53:44.662Z,4.20
2017-11-14T14:56:12.282Z,3.10
2017-11-14T14:58:44.112Z,3.67
2017-11-14T15:01:11.684Z,4.40
2017-11-14T15:03:39.700Z,3.47
2017-11-14T15:06:06.264Z,6.07
2017-11-14T15:08:36.616Z,5.20
2017-11-14T15:11:03.884Z,4.57
2017-11-14T15:13:33.056Z,3.40
2017-11-14T15:15:59.915Z,7.53
2017-11-14T15:18:28.283Z,6.47
2017-11-14T15:20:56.149Z,3.70
2017-11-14T15:23:22.392Z,4.67
2017-11-14T15:25:49.070Z,4.43
2017-11-14T15:28:15.273Z,4.33
2017-11-14T15:30:42.497Z,4.43
2017-11-14T15:33:11.080Z,5.80
2017-11-14T15:35:40.992Z,4.83
2017-11-14T15:38:07.773Z,4.90
2017-11-14T15:40:34.885Z,4.30
2017-11-14T15:43:02.155Z,5.57
2017-11-14T15:45:29.256Z,3.70
2017-11-14T15:47:56.374Z,4.17
2017-11-14T15:50:23.176Z,4.10
2017-11-14T15:52:49.914Z,3.73
2017-11-14T15:55:16.114Z,4.53
2017-11-14T15:57:44.235Z,4.63
2017-11-14T16:00:11.288Z,4.77
2017-11-14T16:02:37.808Z,4.10
2017-11-14T16:05:04.690Z,5.10
2017-11-14T16:07:30.903Z,4.60
2017-11-14T16:09:58.112Z,4.37
2017-11-14T16:12:26.132Z,4.30
2017-11-14T16:14:52.604Z,5.00
2017-11-14T16:17:18.876Z,4.33
2017-11-14T16:19:46.026Z,3.83
2017-11-14T16:22:13.084Z,5.10
2017-11-14T16:24:40.312Z,5.67
2017-11-14T16:27:07.520Z,5.37
2017-11-14T16:29:34.601Z,6.30
2017-11-14T16:32:02.541Z,5.33
2017-11-14T16:34:28.746Z,5.57
2017-11-14T16:36:55.033Z,6.77
2017-11-14T16:39:21.245Z,7.07
2017-11-14T16:41:48.038Z,6.33
2017-11-14T16:44:14.458Z,6.00
2017-11-14T16:46:40.845Z,5.60
2017-11-14T16:49:07.313Z,5.17
2017-11-14T16:51:33.610Z,4.67
2017-11-14T16:54:01.723Z,4.63
2017-11-14T16:56:28.453Z,4.27
2017-11-14T16:58:55.684Z,4.30
2017-11-14T17:01:23.283Z,4.30
2017-11-14T17:03:50.684Z,5.23
2017-11-14T17:06:16.940Z,4.50
2017-11-14T17:08:44.023Z,4.93
2017-11-14T17:11:10.954Z,4.10
2017-11-14T17:13:38.290Z,4.77
2017-11-14T17:25:50.060Z,5.50
2017-11-14T17:28:16.979Z,5.40
2017-11-14T17:30:43.238Z,6.63
2017-11-14T17:33:09.493Z,5.90
2017-11-14T17:35:36.108Z,5.73
2017-11-14T17:38:02.384Z,7.60
2017-11-14T17:40:30.200Z,8.27
2017-11-14T17:42:58.187Z,8.23
2017-11-14T17:45:27.674Z,9.00
2017-11-14T17:47:54.691Z,8.43
2017-11-14T17:50:23.599Z,7.87
2017-11-14T17:52:50.556Z,8.07
2017-11-14T17:55:18.493Z,6.67
2017-11-14T17:57:45.700Z,6.97
2017-11-14T18:00:12.899Z,6.50
2017-11-14T18:02:39.965Z,4.70
2017-11-14T18:05:08.820Z,5.10
2017-11-14T18:07:36.175Z,5.00
2017-11-14T18:10:04.500Z,5.60
2017-11-14T18:12:32.155Z,6.33
2017-11-14T18:14:58.444Z,5.90
2017-11-14T18:17:25.571Z,6.47
2017-11-14T18:19:53.657Z,7.67
2017-11-14T18:22:22.426Z,7.10
2017-11-14T18:24:49.950Z,7.30
2017-11-14T18:27:17.587Z,6.07
2017-11-14T18:29:44.040Z,6.63
2017-11-14T18:32:12.138Z,8.23
2017-11-14T18:34:39.211Z,7.83
2017-11-14T18:37:07.144Z,8.33
2017-11-14T18:39:34.803Z,7.40
2017-11-14T18:42:02.895Z,7.40
2017-11-14T18:44:30.058Z,8.73
2017-11-14T18:46:56.877Z,8.40
2017-11-14T18:49:23.238Z,8.43
2017-11-14T18:51:52.085Z,8.00
2017-11-14T18:54:18.447Z,8.10
2017-11-14T18:56:46.047Z,10.20
2017-11-14T18:59:14.857Z,16.13
2017-11-14T19:01:42.147Z,15.30
2017-11-14T19:04:08.413Z,14.73
2017-11-14T19:06:35.180Z,12.50
2017-11-14T19:09:02.460Z,11.70
2017-11-14T19:11:28.697Z,12.77
2017-11-14T19:13:57.497Z,13.43
2017-11-14T19:16:26.874Z,12.40
2017-11-14T19:18:54.968Z,10.63
2017-11-14T19:21:22.780Z,11.07
2017-11-14T19:23:51.878Z,11.63
2017-11-14T19:26:18.507Z,10.30
2017-11-14T19:28:46.439Z,10.30
2017-11-14T19:31:12.768Z,8.40
2017-11-14T19:33:40.454Z,8.37
2017-11-14T19:36:07.654Z,8.87
2017-11-14T19:38:33.872Z,8.03
2017-11-14T19:41:00.447Z,7.63
2017-11-14T19:43:27.639Z,8.70
2017-11-14T19:45:55.977Z,6.80
2017-11-14T19:48:22.956Z,8.13
2017-11-14T19:50:49.329Z,7.10
2017-11-14T19:53:16.127Z,7.10
2017-11-14T19:55:43.646Z,7.67
2017-11-14T19:58:10.065Z,9.33
2017-11-14T20:10:22.168Z,6.67
2017-11-14T20:12:48.618Z,7.37
2017-11-14T20:25:00.576Z,8.10
2017-11-14T20:27:27.352Z,11.87
2017-11-14T20:29:53.781Z,7.90
2017-11-14T20:32:21.026Z,8.80
2017-11-14T20:34:48.927Z,9.40
2017-11-14T20:37:16.013Z,10.27
2017-11-14T20:39:44.634Z,13.00
2017-11-14T20:42:10.967Z,14.90
2017-11-14T20:44:38.880Z,14.50
2017-11-14T20:47:09.761Z,14.20
2017-11-14T20:49:36.292Z,14.60
2017-11-14T20:52:04.384Z,15.07
2017-11-14T20:54:31.217Z,14.77
2017-11-14T20:56:59.014Z,13.30
2017-11-14T20:59:25.750Z,12.43
2017-11-14T21:01:52.175Z,11.10
2017-11-14T21:04:18.442Z,11.63
2017-11-14T21:06:46.415Z,12.70
2017-11-14T21:09:15.398Z,13.70
2017-11-14T21:11:43.270Z,13.80
2017-11-14T21:23:54.966Z,15.67
2017-11-14T21:26:21.358Z,14.87
2017-11-14T21:28:49.441Z,16.17
2017-11-14T21:31:18.381Z,18.30
2017-11-14T21:43:29.757Z,13.20
2017-11-14T21:45:56.167Z,13.07
2017-11-14T21:48:22.830Z,13.30
2017-11-14T21:50:50.072Z,11.33
2017-11-14T21:53:16.298Z,11.37
2017-11-14T21:55:42.607Z,10.07
2017-11-14T21:58:09.231Z,9.90
2017-11-14T22:00:36.125Z,9.03
2017-11-14T22:03:02.389Z,11.50
2017-11-14T22:05:29.498Z,11.13
2017-11-14T22:07:55.694Z,11.20
2017-11-14T22:10:21.893Z,11.60
2017-11-14T22:12:51.728Z,11.70
2017-11-14T22:15:18.006Z,10.67
2017-11-14T22:17:44.252Z,11.40
2017-11-14T22:20:10.520Z,11.10
2017-11-14T22:22:37.590Z,11.10
2017-11-14T22:25:03.880Z,11.17
2017-11-14T22:27:30.800Z,10.97
2017-11-14T22:29:57.064Z,11.20
2017-11-14T22:32:23.263Z,11.07
2017-11-14T22:34:50.072Z,10.60
2017-11-14T22:37:17.081Z,9.57
2017-11-14T22:39:43.264Z,8.63
2017-11-14T22:42:09.680Z,7.70
2017-11-14T22:44:37.290Z,9.53
2017-11-14T22:47:04.333Z,7.57
2017-11-14T22:49:31.251Z,8.90
2017-11-14T22:51:57.491Z,8.13
2017-11-14T22:54:23.844Z,9.50
2017-11-14T22:56:50.823Z,8.77
2017-11-14T22:59:17.950Z,8.60
2017-11-14T23:01:44.990Z,9.13
2017-11-14T23:04:11.478Z,9.00
2017-11-14T23:06:37.670Z,8.83
2017-11-14T23:09:05.444Z,7.63
2017-11-14T23:11:32.108Z,8.47
2017-11-14T23:13:58.285Z,9.10
2017-11-14T23:16:25.344Z,8.40
2017-11-14T23:18:51.591Z,8.13
2017-11-14T23:21:17.772Z,8.70
2017-11-14T23:23:43.989Z,8.00
2017-11-14T23:26:11.905Z,8.00
2017-11-14T23:28:38.410Z,6.70
2017-11-14T23:31:05.509Z,7.67
2017-11-14T23:33:32.185Z,7.57
2017-11-14T23:45:44.089Z,7.33
2017-11-14T23:48:11.985Z,6.40
2017-11-14T23:50:38.279Z,6.43
2017-11-14T23:53:04.910Z,7.17
2017-11-14T23:55:31.860Z,7.07
2017-11-14T23:57:58.856Z,6.83
